createdAt,value
2023-04-13T00:02:51.280Z,11.90
2023-04-13T00:06:52.099Z,12.00
2023-04-13T00:10:52.862Z,12.11
2023-04-13T00:14:53.276Z,12.15
2023-04-13T00:18:52.686Z,12.26
2023-04-13T00:22:53.253Z,12.25
2023-04-13T00:26:50.234Z,12.28
2023-04-13T00:30:51.178Z,12.31
2023-04-13T00:34:47.884Z,12.35
2023-04-13T00:38:47.920Z,12.11
2023-04-13T00:42:50.453Z,12.09
2023-04-13T00:46:46.934Z,12.23
2023-04-13T00:50:52.469Z,12.22
2023-04-13T00:54:49.349Z,11.94
2023-04-13T00:58:52.795Z,11.94
2023-04-13T01:02:53.240Z,11.79
2023-04-13T01:06:54.511Z,11.78
2023-04-13T01:10:55.203Z,11.93
2023-04-13T01:14:57.386Z,11.98
2023-04-13T01:18:54.241Z,11.98
2023-04-13T01:22:55.115Z,12.05
2023-04-13T01:26:51.718Z,11.91
2023-04-13T01:30:52.515Z,12.02
2023-04-13T01:34:51.768Z,12.06
2023-04-13T01:38:53.369Z,12.07
2023-04-13T01:42:50.964Z,12.02
2023-04-13T01:46:52.946Z,11.99
2023-04-13T01:51:19.049Z,11.98
2023-04-13T01:55:23.261Z,11.92
2023-04-13T01:59:25.212Z,12.03
2023-04-13T02:03:25.622Z,11.95
2023-04-13T02:07:22.647Z,11.88
2023-04-13T02:11:24.058Z,11.83
2023-04-13T02:15:21.378Z,11.98
2023-04-13T02:19:22.576Z,11.91
2023-04-13T02:23:31.683Z,11.89
2023-04-13T02:27:32.058Z,11.98
2023-04-13T02:31:29.179Z,12.14
2023-04-13T02:35:29.561Z,12.14
2023-04-13T02:39:26.332Z,12.03
2023-04-13T02:43:29.403Z,12.00
2023-04-13T02:47:26.428Z,12.03
2023-04-13T02:51:28.123Z,12.00
2023-04-13T02:55:25.703Z,12.14
2023-04-13T02:59:32.080Z,12.22
2023-04-13T03:03:33.060Z,12.07
2023-04-13T03:07:32.539Z,12.01
2023-04-13T03:11:33.311Z,11.93
2023-04-13T03:15:41.373Z,11.93
2023-04-13T03:19:43.837Z,11.91
2023-04-13T03:23:42.275Z,11.98
2023-04-13T03:27:44.889Z,11.89
2023-04-13T03:31:41.451Z,11.94
2023-04-13T03:35:43.309Z,11.97
2023-04-13T03:39:49.472Z,12.06
2023-04-13T03:43:53.637Z,12.10
2023-04-13T03:47:52.792Z,12.07
2023-04-13T03:51:55.222Z,12.05
2023-04-13T03:55:52.549Z,12.19
2023-04-13T03:59:57.434Z,12.18
2023-04-13T04:04:14.411Z,12.24
2023-04-13T04:08:15.752Z,12.45
2023-04-13T04:12:14.404Z,12.47
2023-04-13T04:16:16.431Z,12.45
2023-04-13T04:20:16.727Z,12.53
2023-04-13T04:24:17.957Z,12.54
2023-04-13T04:28:15.642Z,12.53
2023-04-13T04:32:16.623Z,12.63
2023-04-13T04:36:22.130Z,12.72
2023-04-13T04:40:26.586Z,12.76
2023-04-13T04:44:29.852Z,12.67
2023-04-13T04:48:27.593Z,12.56
2023-04-13T04:52:37.305Z,12.34
2023-04-13T04:56:41.340Z,12.31
2023-04-13T05:00:41.484Z,12.35
2023-04-13T05:04:48.476Z,12.45
2023-04-13T05:08:53.099Z,12.55
2023-04-13T05:12:52.377Z,12.61
2023-04-13T05:17:02.916Z,12.57
2023-04-13T05:21:03.624Z,12.75
2023-04-13T05:25:01.226Z,12.79
2023-04-13T05:29:01.615Z,12.76
2023-04-13T05:33:08.580Z,12.69
2023-04-13T05:36:51.429Z,12.71
2023-04-13T05:40:54.874Z,12.72
2023-04-13T05:45:03.215Z,12.77
2023-04-13T05:48:46.454Z,12.80
2023-04-13T05:52:50.776Z,12.82
2023-04-13T05:56:47.877Z,12.99
2023-04-13T06:00:51.463Z,13.02
2023-04-13T06:04:50.944Z,13.23
2023-04-13T06:08:54.108Z,13.33
2023-04-13T06:12:57.091Z,13.45
2023-04-13T06:17:00.825Z,13.57
2023-04-13T06:21:00.588Z,13.61
2023-04-13T06:24:58.717Z,13.70
2023-04-13T06:28:47.523Z,13.60
2023-04-13T06:32:48.898Z,13.59
2023-04-13T06:36:51.441Z,13.88
2023-04-13T06:40:57.464Z,13.85
2023-04-13T06:44:57.509Z,13.76
2023-04-13T06:49:00.725Z,13.55
2023-04-13T06:52:59.428Z,13.38
2023-04-13T06:57:03.625Z,13.52
2023-04-13T07:01:00.680Z,13.54
2023-04-13T07:05:08.777Z,13.62
2023-04-13T07:09:09.565Z,13.70
2023-04-13T07:13:14.951Z,13.79
2023-04-13T07:17:13.717Z,13.94
2023-04-13T07:21:16.004Z,13.96
2023-04-13T07:25:30.725Z,13.92
2023-04-13T07:29:35.089Z,14.10
2023-04-13T07:33:37.656Z,14.03
2023-04-13T07:37:40.638Z,14.39
2023-04-13T07:41:41.525Z,14.55
2023-04-13T07:45:51.645Z,14.42
2023-04-13T07:49:51.819Z,14.51
2023-04-13T07:53:56.597Z,14.48
2023-04-13T07:57:58.825Z,14.39
2023-04-13T08:02:02.751Z,14.45
2023-04-13T08:06:02.672Z,14.35
2023-04-13T08:10:06.635Z,14.13
2023-04-13T08:14:06.767Z,13.99
2023-04-13T08:18:11.508Z,13.92
2023-04-13T08:22:11.865Z,13.87
2023-04-13T08:26:14.634Z,14.03
2023-04-13T08:30:15.896Z,13.91
2023-04-13T08:34:31.381Z,13.91
2023-04-13T08:38:28.877Z,13.94
2023-04-13T08:42:29.962Z,13.95
2023-04-13T08:46:26.961Z,13.94
2023-04-13T08:50:33.423Z,13.93
2023-04-13T08:54:31.737Z,13.94
2023-04-13T08:58:32.746Z,13.91
2023-04-13T09:02:30.081Z,13.92
2023-04-13T09:06:35.501Z,13.88
2023-04-13T09:10:36.870Z,13.86
2023-04-13T09:14:43.822Z,13.83
2023-04-13T09:18:48.294Z,14.04
2023-04-13T09:22:49.264Z,13.93
2023-04-13T09:26:43.595Z,13.91
2023-04-13T09:30:43.818Z,13.95
2023-04-13T09:34:40.862Z,13.87
2023-04-13T09:38:44.515Z,13.87
2023-04-13T09:42:40.932Z,13.92
2023-04-13T09:46:41.663Z,14.01
2023-04-13T09:50:39.144Z,14.00
2023-04-13T09:54:40.023Z,13.91
2023-04-13T09:58:37.172Z,13.91
2023-04-13T10:02:36.950Z,13.94
2023-04-13T10:06:31.427Z,14.09
2023-04-13T10:10:31.962Z,14.15
2023-04-13T10:14:26.954Z,14.14
2023-04-13T10:18:27.953Z,14.12
2023-04-13T10:22:25.230Z,14.01
2023-04-13T10:26:26.028Z,13.92
2023-04-13T10:30:23.255Z,13.77
2023-04-13T10:34:24.920Z,13.62
2023-04-13T10:38:25.709Z,13.58
2023-04-13T10:42:26.151Z,13.62
2023-04-13T10:46:24.395Z,13.71
2023-04-13T10:50:24.914Z,13.82
2023-04-13T10:54:19.275Z,13.79
2023-04-13T10:58:21.115Z,13.64
2023-04-13T11:02:19.033Z,13.63
2023-04-13T11:06:17.642Z,13.58
2023-04-13T11:10:16.166Z,13.49
2023-04-13T11:14:19.171Z,13.57
2023-04-13T11:18:16.235Z,13.63
2023-04-13T11:22:16.980Z,13.57
2023-04-13T11:26:15.027Z,13.61
2023-04-13T11:30:19.247Z,13.53
2023-04-13T11:34:20.585Z,13.49
2023-04-13T11:38:22.511Z,13.43
2023-04-13T11:42:19.206Z,13.39
2023-04-13T11:46:20.008Z,13.43
2023-04-13T11:50:17.089Z,13.44
2023-04-13T11:54:17.723Z,13.45
2023-04-13T11:58:12.249Z,13.39
2023-04-13T12:02:22.827Z,13.49
2023-04-13T12:06:20.792Z,13.65
2023-04-13T12:10:24.553Z,13.81
2023-04-13T12:14:07.024Z,13.89
2023-04-13T12:18:14.690Z,13.84
2023-04-13T12:22:15.063Z,13.88
2023-04-13T12:26:49.875Z,13.99
2023-04-13T12:30:37.880Z,13.97
2023-04-13T12:34:36.334Z,14.10
2023-04-13T12:38:41.331Z,14.03
2023-04-13T12:42:44.566Z,13.96
2023-04-13T12:46:44.531Z,13.97
2023-04-13T12:50:47.559Z,13.99
2023-04-13T12:54:47.263Z,13.96
2023-04-13T12:58:53.757Z,14.11
2023-04-13T13:03:02.906Z,14.30
2023-04-13T13:07:16.668Z,14.52
2023-04-13T13:11:23.313Z,14.70
2023-04-13T13:15:26.099Z,14.85
2023-04-13T13:19:26.232Z,15.16
2023-04-13T13:23:29.564Z,15.20
2023-04-13T13:28:05.472Z,15.33
2023-04-13T13:31:52.908Z,15.54
2023-04-13T13:35:53.213Z,15.58
2023-04-13T13:39:56.390Z,15.78
2023-04-13T13:43:39.857Z,15.73
2023-04-13T13:47:43.754Z,15.77
2023-04-13T13:51:43.332Z,15.65
2023-04-13T13:55:48.834Z,15.74
2023-04-13T13:59:54.850Z,15.76
2023-04-13T14:03:54.494Z,15.77
2023-04-13T14:07:58.912Z,15.69
2023-04-13T14:11:59.249Z,15.67
2023-04-13T14:16:06.168Z,15.58
2023-04-13T14:20:07.203Z,15.54
2023-04-13T14:24:10.368Z,15.57
2023-04-13T14:28:10.228Z,15.63
2023-04-13T14:32:21.352Z,15.56
2023-04-13T14:36:22.417Z,15.47
2023-04-13T14:40:29.261Z,15.62
2023-04-13T14:44:27.181Z,15.44
2023-04-13T14:48:28.394Z,15.36
2023-04-13T14:52:27.258Z,15.40
2023-04-13T14:56:29.384Z,15.39
2023-04-13T15:00:28.020Z,15.22
2023-04-13T15:04:41.325Z,15.14
2023-04-13T15:08:41.140Z,15.21
2023-04-13T15:12:48.735Z,15.11
2023-04-13T15:16:47.379Z,14.99
2023-04-13T15:20:48.213Z,14.89
2023-04-13T15:24:48.687Z,14.84
2023-04-13T15:28:49.716Z,14.83
2023-04-13T15:32:48.674Z,14.73
2023-04-13T15:36:49.602Z,14.50
2023-04-13T15:40:48.705Z,14.32
2023-04-13T15:44:51.453Z,14.19
2023-04-13T15:48:51.141Z,14.05
2023-04-13T15:52:51.662Z,13.98
2023-04-13T15:56:50.360Z,13.87
2023-04-13T16:00:55.347Z,13.84
2023-04-13T16:04:54.869Z,13.92
2023-04-13T16:08:56.332Z,13.85
2023-04-13T16:12:55.612Z,13.83
2023-04-13T16:16:57.452Z,13.70
2023-04-13T16:20:59.005Z,13.71
2023-04-13T16:24:59.654Z,13.69
2023-04-13T16:28:59.733Z,13.72
2023-04-13T16:33:03.087Z,13.72
2023-04-13T16:36:44.426Z,13.72
2023-04-13T16:40:45.642Z,13.62
2023-04-13T16:44:49.532Z,13.65
2023-04-13T16:48:50.468Z,13.61
2023-04-13T16:52:51.558Z,13.58
2023-04-13T16:56:50.418Z,13.55
2023-04-13T17:00:51.743Z,13.64
2023-04-13T17:04:51.073Z,13.57
2023-04-13T17:08:56.759Z,13.47
2023-04-13T17:12:55.419Z,13.48
2023-04-13T17:16:56.569Z,13.50
2023-04-13T17:20:53.803Z,13.45
2023-04-13T17:24:54.651Z,13.45
2023-04-13T17:28:51.720Z,13.37
2023-04-13T17:32:52.809Z,13.46
2023-04-13T17:36:49.810Z,13.51
2023-04-13T17:40:50.388Z,13.48
2023-04-13T17:44:48.621Z,13.49
2023-04-13T17:48:53.809Z,13.44
2023-04-13T17:52:50.923Z,13.37
2023-04-13T17:56:52.882Z,13.51
2023-04-13T18:00:49.808Z,13.54
2023-04-13T18:04:54.859Z,13.46
2023-04-13T18:08:47.235Z,13.49
2023-04-13T18:12:33.748Z,13.49
2023-04-13T18:16:21.676Z,13.51
2023-04-13T18:20:08.197Z,13.58
2023-04-13T18:24:03.099Z,13.46
2023-04-13T18:28:00.974Z,13.47
2023-04-13T18:32:02.279Z,13.48
2023-04-13T18:35:59.938Z,13.48
2023-04-13T18:40:00.419Z,13.44
2023-04-13T18:43:56.496Z,13.32
2023-04-13T18:47:56.703Z,13.33
2023-04-13T18:51:42.658Z,13.32
2023-04-13T18:55:28.858Z,13.24
2023-04-13T18:59:15.427Z,13.28
2023-04-13T19:03:09.218Z,13.28
2023-04-13T19:07:05.293Z,13.27
2023-04-13T19:11:06.518Z,13.27
2023-04-13T19:15:03.677Z,13.19
2023-04-13T19:19:04.934Z,13.14
2023-04-13T19:23:02.199Z,13.08
2023-04-13T19:27:03.060Z,13.08
2023-04-13T19:31:01.465Z,13.10
2023-04-13T19:35:06.796Z,13.10
2023-04-13T19:38:53.069Z,13.03
2023-04-13T19:42:39.199Z,13.06
2023-04-13T19:46:25.817Z,13.04
2023-04-13T19:50:11.805Z,13.00
2023-04-13T19:54:06.546Z,13.04
2023-04-13T19:58:06.930Z,12.97
2023-04-13T20:02:11.082Z,13.03
2023-04-13T20:06:12.870Z,12.99
2023-04-13T20:10:10.292Z,12.91
2023-04-13T20:14:12.682Z,12.92
2023-04-13T20:18:08.799Z,12.92
2023-04-13T20:22:09.976Z,12.87
2023-04-13T20:26:03.984Z,12.81
2023-04-13T20:29:50.829Z,12.76
2023-04-13T20:33:39.153Z,12.85
2023-04-13T20:37:38.237Z,12.73
2023-04-13T20:41:41.307Z,12.76
2023-04-13T20:45:39.929Z,12.73
2023-04-13T20:49:43.876Z,12.72
2023-04-13T20:53:43.838Z,12.79
2023-04-13T20:57:52.057Z,12.83
2023-04-13T21:01:50.992Z,12.85
2023-04-13T21:05:55.146Z,12.75
2023-04-13T21:09:55.069Z,12.58
2023-04-13T21:13:58.211Z,12.55
2023-04-13T21:17:57.889Z,12.57
2023-04-13T21:22:03.041Z,12.57
2023-04-13T21:26:02.108Z,12.63
2023-04-13T21:30:06.134Z,12.67
2023-04-13T21:34:06.095Z,12.72
2023-04-13T21:38:09.018Z,12.63
2023-04-13T21:42:08.192Z,12.59
2023-04-13T21:46:10.583Z,12.60
2023-04-13T21:50:09.043Z,12.50
2023-04-13T21:54:01.780Z,12.46
2023-04-13T21:57:48.225Z,12.48
2023-04-13T22:01:34.760Z,12.52
2023-04-13T22:05:21.114Z,12.54
2023-04-13T22:09:09.208Z,12.49
2023-04-13T22:12:55.698Z,12.45
2023-04-13T22:16:44.026Z,12.53
2023-04-13T22:20:30.444Z,12.66
2023-04-13T22:24:22.707Z,12.63
2023-04-13T22:28:09.080Z,12.54
2023-04-13T22:32:02.561Z,12.57
2023-04-13T22:36:07.153Z,12.59
2023-04-13T22:40:10.155Z,12.54
2023-04-13T22:44:09.153Z,12.66
2023-04-13T22:48:13.158Z,12.61
2023-04-13T22:52:13.189Z,12.57
2023-04-13T22:55:59.534Z,12.40
2023-04-13T22:59:49.079Z,12.52
2023-04-13T23:03:43.516Z,12.49
2023-04-13T23:07:49.191Z,12.56
2023-04-13T23:11:53.029Z,12.54
2023-04-13T23:15:53.364Z,12.62
2023-04-13T23:19:57.740Z,12.70
2023-04-13T23:23:57.279Z,12.59
2023-04-13T23:27:55.299Z,12.51
2023-04-13T23:31:50.570Z,12.53
2023-04-13T23:35:36.971Z,12.52
2023-04-13T23:39:37.592Z,12.54
2023-04-13T23:43:30.812Z,12.55
2023-04-13T23:47:25.439Z,12.54
2023-04-13T23:51:18.386Z,12.50
2023-04-13T23:55:12.970Z,12.43
2023-04-13T23:59:26.821Z,12.44
